createdAt,value
2022-08-29T00:03:36.615Z,100.00
2022-08-29T00:08:40.131Z,100.00
2022-08-29T00:13:43.542Z,100.00
2022-08-29T00:18:46.957Z,100.00
2022-08-29T00:23:50.576Z,100.00
2022-08-29T00:28:54.089Z,100.00
2022-08-29T00:33:58.124Z,100.00
2022-08-29T00:39:01.538Z,100.00
2022-08-29T00:44:05.309Z,100.00
2022-08-29T00:49:11.391Z,100.00
2022-08-29T00:54:15.971Z,100.00
2022-08-29T00:59:26.044Z,100.00
2022-08-29T01:04:33.036Z,100.00
2022-08-29T01:09:38.834Z,100.00
2022-08-29T01:15:05.259Z,100.00
2022-08-29T01:20:25.467Z,100.00
2022-08-29T01:25:35.330Z,100.00
2022-08-29T01:31:05.273Z,100.00
2022-08-29T01:36:12.018Z,100.00
2022-08-29T01:41:18.122Z,100.00
2022-08-29T01:46:28.818Z,100.00
2022-08-29T01:51:32.539Z,100.00
2022-08-29T01:56:40.047Z,100.00
2022-08-29T02:02:06.358Z,100.00
2022-08-29T02:07:12.735Z,100.00
2022-08-29T02:12:16.914Z,100.00
2022-08-29T02:17:20.323Z,100.00
2022-08-29T02:22:23.636Z,100.00
2022-08-29T02:27:26.947Z,100.00
2022-08-29T02:32:30.667Z,100.00
2022-08-29T02:37:33.874Z,100.00
2022-08-29T02:42:37.189Z,100.00
2022-08-29T02:47:41.173Z,100.00
2022-08-29T02:52:44.831Z,100.00
2022-08-29T02:57:48.448Z,100.00
2022-08-29T03:02:53.167Z,100.00
2022-08-29T03:07:58.131Z,100.00
2022-08-29T03:13:01.760Z,100.00
2022-08-29T03:18:05.890Z,100.00
2022-08-29T03:23:10.636Z,100.00
2022-08-29T03:28:14.289Z,100.00
2022-08-29T03:33:18.384Z,100.00
2022-08-29T03:38:23.128Z,100.00
2022-08-29T03:43:26.544Z,100.00
2022-08-29T03:48:29.852Z,100.00
2022-08-29T03:53:33.879Z,100.00
2022-08-29T03:58:38.420Z,100.00
2022-08-29T04:03:41.731Z,100.00
2022-08-29T04:08:47.655Z,100.00
2022-08-29T04:13:53.272Z,100.00
2022-08-29T04:18:56.578Z,100.00
2022-08-29T04:23:59.995Z,100.00
2022-08-29T04:29:04.226Z,100.00
2022-08-29T04:34:09.687Z,100.00
2022-08-29T04:39:13.815Z,100.00
2022-08-29T04:44:17.125Z,100.00
2022-08-29T04:49:21.972Z,100.00
2022-08-29T04:54:25.694Z,100.00
2022-08-29T04:59:29.413Z,100.00
2022-08-29T05:04:32.624Z,100.00
2022-08-29T05:09:35.936Z,100.00
2022-08-29T05:14:40.376Z,100.00
2022-08-29T05:19:44.978Z,100.00
2022-08-29T05:24:50.068Z,100.00
2022-08-29T05:29:54.249Z,100.00
2022-08-29T05:34:59.348Z,100.00
2022-08-29T05:40:03.734Z,100.00
2022-08-29T05:45:08.171Z,100.00
2022-08-29T05:50:12.250Z,100.00
2022-08-29T05:55:15.871Z,100.00
2022-08-29T06:00:19.793Z,100.00
2022-08-29T06:05:23.104Z,100.00
2022-08-29T06:10:26.620Z,100.00
2022-08-29T06:15:30.267Z,100.00
2022-08-29T06:20:33.959Z,100.00
2022-08-29T06:25:40.128Z,100.00
2022-08-29T06:30:44.013Z,100.00
2022-08-29T06:35:47.475Z,100.00
2022-08-29T06:40:50.993Z,100.00
2022-08-29T06:45:54.635Z,100.00
2022-08-29T06:51:00.684Z,100.00
2022-08-29T06:56:06.449Z,100.00
2022-08-29T07:01:17.699Z,100.00
2022-08-29T07:06:21.783Z,100.00
2022-08-29T07:11:27.243Z,100.00
2022-08-29T07:16:32.509Z,100.00
2022-08-29T07:21:36.627Z,100.00
2022-08-29T07:26:43.475Z,100.00
2022-08-29T07:31:47.808Z,100.00
2022-08-29T07:36:51.267Z,100.00
2022-08-29T07:41:54.636Z,100.00
2022-08-29T07:46:59.994Z,100.00
2022-08-29T07:52:03.761Z,100.00
2022-08-29T07:57:06.969Z,100.00
2022-08-29T08:02:10.770Z,100.00
2022-08-29T08:07:14.618Z,100.00
2022-08-29T08:12:18.341Z,100.00
2022-08-29T08:17:22.262Z,100.00
2022-08-29T08:22:25.675Z,100.00
2022-08-29T08:27:29.294Z,100.00
2022-08-29T08:32:33.629Z,100.00
2022-08-29T08:37:40.527Z,100.00
2022-08-29T08:42:46.219Z,100.00
2022-08-29T08:48:13.975Z,100.00
2022-08-29T08:53:35.206Z,100.00
2022-08-29T08:58:54.593Z,100.00
2022-08-29T09:04:17.155Z,100.00
2022-08-29T09:09:32.860Z,100.00
2022-08-29T09:15:04.537Z,100.00
2022-08-29T09:20:15.524Z,100.00
2022-08-29T09:25:19.347Z,100.00
2022-08-29T09:30:26.548Z,100.00
2022-08-29T09:35:37.849Z,100.00
2022-08-29T09:40:55.902Z,100.00
2022-08-29T09:46:03.924Z,100.00
2022-08-29T09:51:15.939Z,100.00
2022-08-29T09:56:26.734Z,100.00
2022-08-29T10:01:32.663Z,100.00
2022-08-29T10:06:46.224Z,100.00
2022-08-29T10:12:00.790Z,100.00
2022-08-29T10:17:33.317Z,99.11
2022-08-29T10:22:42.574Z,98.33
2022-08-29T10:28:07.094Z,97.77
2022-08-29T10:33:16.623Z,97.26
2022-08-29T10:38:47.492Z,95.84
2022-08-29T10:43:50.804Z,95.15
2022-08-29T10:49:20.737Z,96.07
2022-08-29T10:54:53.339Z,95.76
2022-08-29T11:00:10.652Z,95.13
2022-08-29T11:05:25.560Z,94.14
2022-08-29T11:10:33.742Z,93.64
2022-08-29T11:15:43.135Z,89.90
2022-08-29T11:20:52.283Z,88.26
2022-08-29T11:26:02.466Z,88.11
2022-08-29T11:31:44.535Z,88.04
2022-08-29T11:36:47.887Z,87.78
2022-08-29T11:41:58.327Z,87.34
2022-08-29T11:47:22.464Z,85.65
2022-08-29T11:52:27.470Z,83.11
2022-08-29T11:57:31.645Z,82.70
2022-08-29T12:02:39.561Z,83.11
2022-08-29T12:08:03.061Z,81.95
2022-08-29T12:13:42.506Z,81.58
2022-08-29T12:18:49.065Z,78.99
2022-08-29T12:23:52.454Z,77.85
2022-08-29T12:29:00.887Z,77.94
2022-08-29T12:34:07.216Z,77.11
2022-08-29T12:39:27.117Z,76.87
2022-08-29T12:44:48.947Z,73.25
2022-08-29T12:49:57.409Z,71.54
2022-08-29T12:55:28.823Z,71.56
2022-08-29T13:00:34.476Z,70.84
2022-08-29T13:05:41.528Z,71.04
2022-08-29T13:11:13.309Z,70.10
2022-08-29T13:16:30.299Z,70.13
2022-08-29T13:21:34.368Z,69.48
2022-08-29T13:26:50.433Z,68.10
2022-08-29T13:32:32.803Z,67.56
2022-08-29T13:37:39.903Z,67.25
2022-08-29T13:42:45.979Z,66.48
2022-08-29T13:48:02.704Z,65.50
2022-08-29T13:53:06.013Z,64.55
2022-08-29T13:58:11.732Z,63.67
2022-08-29T14:03:18.503Z,62.67
2022-08-29T14:08:23.758Z,61.99
2022-08-29T14:13:28.371Z,60.99
2022-08-29T14:18:32.099Z,60.29
2022-08-29T14:23:36.528Z,57.55
2022-08-29T14:28:42.134Z,57.65
2022-08-29T14:33:51.618Z,57.21
2022-08-29T14:38:55.371Z,49.88
2022-08-29T14:43:59.401Z,45.25
2022-08-29T14:49:03.424Z,41.58
2022-08-29T14:54:06.737Z,37.36
2022-08-29T14:59:10.048Z,32.87
2022-08-29T15:04:13.975Z,33.21
2022-08-29T15:09:17.487Z,29.57
2022-08-29T15:14:20.902Z,27.77
2022-08-29T15:20:15.821Z,25.61
2022-08-29T15:24:50.353Z,22.09
2022-08-29T15:29:53.979Z,22.04
2022-08-29T15:34:57.799Z,21.97
2022-08-29T15:40:01.237Z,20.76
2022-08-29T15:45:08.227Z,20.89
2022-08-29T15:50:11.627Z,22.51
2022-08-29T15:55:15.006Z,25.69
2022-08-29T16:00:29.610Z,30.73
2022-08-29T16:05:36.422Z,33.37
2022-08-29T16:11:49.754Z,37.20
2022-08-29T16:16:52.963Z,40.01
2022-08-29T16:22:00.277Z,41.52
2022-08-29T16:27:04.707Z,45.54
2022-08-29T16:32:08.937Z,46.56
2022-08-29T16:37:12.455Z,48.01
2022-08-29T16:42:16.173Z,48.79
2022-08-29T16:47:19.691Z,49.73
2022-08-29T16:52:23.160Z,50.19
2022-08-29T16:57:26.925Z,49.95
2022-08-29T17:02:30.375Z,50.73
2022-08-29T17:07:33.754Z,50.28
2022-08-29T17:12:36.960Z,50.80
2022-08-29T17:17:40.787Z,51.49
2022-08-29T17:22:44.093Z,52.27
2022-08-29T17:28:14.321Z,52.78
2022-08-29T17:33:12.117Z,53.82
2022-08-29T17:38:16.445Z,54.58
2022-08-29T17:43:20.070Z,55.45
2022-08-29T17:48:23.791Z,57.18
2022-08-29T17:53:27.307Z,57.68
2022-08-29T17:58:30.823Z,58.76
2022-08-29T18:03:34.202Z,59.34
2022-08-29T18:08:38.575Z,61.07
2022-08-29T18:13:43.422Z,62.02
2022-08-29T18:18:49.993Z,61.70
2022-08-29T18:23:54.237Z,62.15
2022-08-29T18:29:00.620Z,61.80
2022-08-29T18:34:04.446Z,62.24
2022-08-29T18:39:09.599Z,63.45
2022-08-29T18:44:13.009Z,64.15
2022-08-29T18:49:17.864Z,64.70
2022-08-29T18:54:25.232Z,64.56
2022-08-29T18:59:30.623Z,64.47
2022-08-29T19:04:33.932Z,65.50
2022-08-29T19:09:37.449Z,65.93
2022-08-29T19:14:46.153Z,66.46
2022-08-29T19:20:10.216Z,67.07
2022-08-29T19:25:14.416Z,67.68
2022-08-29T19:30:18.748Z,67.85
2022-08-29T19:35:23.803Z,69.33
2022-08-29T19:40:28.146Z,70.42
2022-08-29T19:45:32.107Z,71.03
2022-08-29T19:50:36.298Z,72.29
2022-08-29T19:55:40.836Z,73.57
2022-08-29T20:00:46.067Z,73.92
2022-08-29T20:05:49.605Z,73.54
2022-08-29T20:10:53.738Z,73.55
2022-08-29T20:15:57.098Z,75.44
2022-08-29T20:21:00.868Z,75.51
2022-08-29T20:26:04.489Z,76.55
2022-08-29T20:31:08.359Z,76.19
2022-08-29T20:36:31.284Z,75.84
2022-08-29T20:41:34.696Z,76.15
2022-08-29T20:46:40.738Z,76.28
2022-08-29T20:51:44.799Z,76.38
2022-08-29T20:56:48.926Z,77.55
2022-08-29T21:01:52.937Z,78.18
2022-08-29T21:07:02.165Z,78.78
2022-08-29T21:12:07.671Z,79.53
2022-08-29T21:17:12.413Z,79.80
2022-08-29T21:22:16.082Z,80.38
2022-08-29T21:27:20.057Z,81.72
2022-08-29T21:32:23.675Z,81.52
2022-08-29T21:37:27.300Z,81.47
2022-08-29T21:42:30.910Z,81.95
2022-08-29T21:47:34.223Z,82.14
2022-08-29T21:52:37.946Z,82.20
2022-08-29T21:57:53.545Z,82.13
2022-08-29T22:02:58.246Z,82.24
2022-08-29T22:08:04.564Z,81.98
2022-08-29T22:13:09.087Z,82.80
2022-08-29T22:18:15.185Z,83.22
2022-08-29T22:23:20.204Z,83.93
2022-08-29T22:28:23.855Z,84.75
2022-08-29T22:33:27.161Z,85.06
2022-08-29T22:38:31.804Z,85.35
2022-08-29T22:43:35.319Z,85.41
2022-08-29T22:48:39.729Z,85.45
2022-08-29T22:54:03.957Z,85.61
2022-08-29T22:59:07.371Z,85.96
2022-08-29T23:04:12.167Z,86.08
2022-08-29T23:09:16.557Z,86.34
2022-08-29T23:14:20.994Z,86.31
2022-08-29T23:19:24.402Z,86.98
2022-08-29T23:24:28.121Z,87.21
2022-08-29T23:29:33.275Z,87.25
2022-08-29T23:34:38.840Z,87.52
2022-08-29T23:39:42.149Z,88.12
2022-08-29T23:44:48.507Z,88.52
2022-08-29T23:49:52.258Z,88.85
2022-08-29T23:54:55.770Z,90.07
